createdAt,value
2024-02-07T00:00:11.725Z,37.50
2024-02-07T00:03:02.542Z,38.25
2024-02-07T00:05:31.508Z,36.75
2024-02-07T00:08:00.670Z,35.75
2024-02-07T00:10:29.441Z,37.00
2024-02-07T00:12:58.417Z,37.50
2024-02-07T00:15:28.583Z,36.75
2024-02-07T00:17:59.261Z,37.50
2024-02-07T00:20:29.269Z,40.33
2024-02-07T00:22:58.249Z,37.75
2024-02-07T00:25:26.914Z,33.25
2024-02-07T00:27:56.358Z,36.00
2024-02-07T00:30:31.246Z,34.50
2024-02-07T00:33:07.384Z,36.50
2024-02-07T00:35:37.597Z,34.75
2024-02-07T00:38:06.872Z,34.25
2024-02-07T00:40:35.826Z,36.75
2024-02-07T00:43:05.314Z,32.75
2024-02-07T00:45:34.113Z,35.00
2024-02-07T00:48:03.052Z,36.25
2024-02-07T00:50:31.726Z,38.67
2024-02-07T00:53:02.273Z,40.67
2024-02-07T00:55:31.226Z,39.00
2024-02-07T00:58:00.194Z,40.67
2024-02-07T01:00:28.905Z,39.25
2024-02-07T01:02:57.916Z,40.00
2024-02-07T01:05:26.652Z,39.50
2024-02-07T01:07:55.724Z,38.50
2024-02-07T01:10:25.837Z,38.75
2024-02-07T01:12:54.761Z,37.25
2024-02-07T01:15:23.473Z,38.25
2024-02-07T01:17:52.489Z,37.25
2024-02-07T01:20:21.323Z,37.00
2024-02-07T01:22:50.352Z,37.25
2024-02-07T01:25:20.189Z,36.00
2024-02-07T01:27:51.130Z,39.50
2024-02-07T01:30:19.952Z,42.00
2024-02-07T01:32:49.666Z,38.50
2024-02-07T01:35:18.487Z,39.25
2024-02-07T01:37:47.656Z,35.75
2024-02-07T01:40:16.901Z,35.75
2024-02-07T01:42:45.869Z,35.75
2024-02-07T01:45:23.957Z,37.25
2024-02-07T01:47:53.759Z,34.50
2024-02-07T01:50:23.644Z,36.25
2024-02-07T01:52:56.863Z,35.75
2024-02-07T01:55:26.560Z,35.25
2024-02-07T01:57:57.085Z,35.25
2024-02-07T02:00:28.119Z,27.00
2024-02-07T02:02:57.100Z,29.50
2024-02-07T02:05:25.976Z,33.25
2024-02-07T02:07:55.552Z,31.50
2024-02-07T02:10:24.459Z,30.75
2024-02-07T02:12:54.117Z,33.00
2024-02-07T02:15:24.234Z,36.00
2024-02-07T02:17:54.935Z,37.00
2024-02-07T02:20:24.898Z,35.00
2024-02-07T02:23:19.559Z,34.00
2024-02-07T02:26:21.413Z,36.75
2024-02-07T02:29:06.142Z,33.75
2024-02-07T02:31:38.409Z,31.00
2024-02-07T02:34:08.137Z,32.25
2024-02-07T02:36:37.212Z,32.25
2024-02-07T02:39:07.058Z,31.50
2024-02-07T02:41:35.791Z,31.75
2024-02-07T02:44:04.979Z,31.00
2024-02-07T02:46:33.734Z,28.25
2024-02-07T02:49:04.499Z,30.25
2024-02-07T02:51:33.977Z,31.75
2024-02-07T02:54:04.136Z,30.75
2024-02-07T02:56:34.518Z,29.75
2024-02-07T02:59:06.949Z,30.00
2024-02-07T03:01:36.754Z,29.50
2024-02-07T03:04:08.052Z,26.50
2024-02-07T03:06:52.295Z,30.25
2024-02-07T03:09:22.610Z,28.00
2024-02-07T03:11:52.070Z,29.50
2024-02-07T03:14:21.907Z,26.00
2024-02-07T03:16:50.572Z,29.25
2024-02-07T03:19:21.543Z,27.00
2024-02-07T03:21:50.244Z,27.50
2024-02-07T03:24:20.172Z,28.00
2024-02-07T03:26:48.893Z,28.00
2024-02-07T03:29:18.540Z,30.50
2024-02-07T03:31:47.282Z,30.75
2024-02-07T03:34:16.564Z,32.00
2024-02-07T03:36:47.055Z,30.25
2024-02-07T03:39:15.988Z,28.25
2024-02-07T03:41:44.609Z,28.50
2024-02-07T03:44:14.460Z,29.50
2024-02-07T03:46:43.473Z,25.00
2024-02-07T03:49:12.599Z,29.25
2024-02-07T03:51:42.144Z,26.50
2024-02-07T03:54:12.660Z,26.75
2024-02-07T03:56:41.380Z,25.75
2024-02-07T03:59:10.448Z,25.25
2024-02-07T04:01:39.854Z,25.75
2024-02-07T04:04:09.863Z,26.00
2024-02-07T04:06:39.854Z,25.25
2024-02-07T04:09:10.191Z,25.60
2024-02-07T04:11:39.263Z,25.00
2024-02-07T04:14:07.064Z,25.25
2024-02-07T04:16:53.345Z,26.50
2024-02-07T04:19:39.661Z,25.25
2024-02-07T04:22:26.139Z,28.00
2024-02-07T04:25:12.812Z,27.25
2024-02-07T04:28:00.141Z,28.75
2024-02-07T04:30:46.352Z,25.00
2024-02-07T04:33:32.667Z,26.75
2024-02-07T04:36:18.948Z,24.25
2024-02-07T04:39:04.960Z,28.75
2024-02-07T04:41:51.374Z,25.75
2024-02-07T04:44:39.037Z,23.40
2024-02-07T04:47:25.562Z,23.00
2024-02-07T04:50:11.505Z,23.25
2024-02-07T04:52:58.183Z,23.60
2024-02-07T04:55:44.307Z,19.60
2024-02-07T04:58:30.960Z,21.80
2024-02-07T05:01:19.066Z,18.60
2024-02-07T05:04:05.846Z,22.40
2024-02-07T05:06:52.795Z,22.20
2024-02-07T05:09:39.389Z,20.60
2024-02-07T05:12:25.824Z,22.75
2024-02-07T05:14:53.764Z,21.80
2024-02-07T05:17:25.252Z,21.80
2024-02-07T05:19:54.717Z,24.00
2024-02-07T05:22:23.410Z,21.00
2024-02-07T05:24:53.586Z,20.00
2024-02-07T05:27:22.341Z,21.60
2024-02-07T05:29:51.520Z,20.60
2024-02-07T05:32:20.416Z,20.20
2024-02-07T05:34:51.047Z,25.25
2024-02-07T05:37:22.091Z,25.75
2024-02-07T05:39:51.217Z,25.75
2024-02-07T05:42:20.360Z,22.80
2024-02-07T05:44:49.965Z,24.25
2024-02-07T05:47:18.808Z,23.00
2024-02-07T05:49:48.091Z,24.40
2024-02-07T05:52:19.512Z,22.80
2024-02-07T05:54:51.111Z,24.00
2024-02-07T05:57:19.894Z,22.75
2024-02-07T05:59:48.813Z,26.25
2024-02-07T06:02:18.488Z,33.25
2024-02-07T06:04:50.949Z,32.25
2024-02-07T06:07:21.266Z,25.25
2024-02-07T06:09:50.352Z,24.60
2024-02-07T06:12:19.084Z,25.00
2024-02-07T06:14:48.791Z,25.75
2024-02-07T06:17:18.287Z,25.00
2024-02-07T06:19:47.679Z,23.20
2024-02-07T06:22:16.540Z,21.00
2024-02-07T06:24:47.281Z,27.00
2024-02-07T06:27:15.988Z,25.00
2024-02-07T06:29:45.004Z,22.80
2024-02-07T06:32:13.822Z,19.00
2024-02-07T06:34:42.949Z,24.80
2024-02-07T06:37:11.772Z,22.80
2024-02-07T06:39:40.719Z,26.00
2024-02-07T06:42:10.800Z,24.40
2024-02-07T06:44:39.740Z,24.25
2024-02-07T06:47:08.488Z,26.00
2024-02-07T06:49:38.801Z,23.75
2024-02-07T06:52:08.108Z,28.75
2024-02-07T06:54:37.105Z,30.25
2024-02-07T06:57:06.225Z,31.00
2024-02-07T06:59:36.654Z,27.25
2024-02-07T07:02:05.721Z,24.75
2024-02-07T07:04:34.884Z,27.50
2024-02-07T07:07:03.642Z,27.25
2024-02-07T07:09:32.578Z,26.00
2024-02-07T07:12:01.304Z,27.00
2024-02-07T07:14:30.262Z,24.75
2024-02-07T07:17:00.436Z,26.25
2024-02-07T07:19:29.563Z,28.25
2024-02-07T07:21:58.261Z,27.25
2024-02-07T07:24:27.406Z,31.00
2024-02-07T07:26:56.703Z,29.50
2024-02-07T07:29:26.444Z,29.00
2024-02-07T07:31:55.169Z,29.75
2024-02-07T07:34:26.196Z,37.50
2024-02-07T07:36:55.036Z,28.75
2024-02-07T07:39:24.122Z,26.75
2024-02-07T07:41:52.835Z,26.50
2024-02-07T07:44:22.081Z,26.75
2024-02-07T07:46:50.794Z,29.75
2024-02-07T07:49:20.036Z,30.50
2024-02-07T07:51:50.185Z,30.25
2024-02-07T07:54:19.194Z,31.00
2024-02-07T07:56:47.877Z,30.00
2024-02-07T07:59:17.266Z,31.25
2024-02-07T08:01:46.085Z,36.50
2024-02-07T08:04:15.377Z,34.00
2024-02-07T08:06:46.716Z,38.75
2024-02-07T08:09:19.608Z,37.75
2024-02-07T08:11:48.906Z,37.25
2024-02-07T08:14:18.745Z,36.50
2024-02-07T08:16:47.812Z,34.75
2024-02-07T08:19:16.945Z,33.75
2024-02-07T08:21:45.768Z,31.00
2024-02-07T08:24:14.842Z,33.00
2024-02-07T08:26:46.225Z,33.00
2024-02-07T08:29:16.267Z,30.25
2024-02-07T08:31:45.009Z,32.00
2024-02-07T08:34:15.298Z,30.00
2024-02-07T08:36:44.317Z,29.00
2024-02-07T08:39:13.632Z,29.75
2024-02-07T08:41:43.017Z,29.75
2024-02-07T08:44:13.352Z,29.75
2024-02-07T08:46:42.327Z,28.50
2024-02-07T08:49:11.740Z,28.00
2024-02-07T08:51:56.214Z,29.75
2024-02-07T08:54:25.160Z,27.50
2024-02-07T08:56:55.464Z,30.25
2024-02-07T08:59:26.024Z,28.50
2024-02-07T09:01:54.832Z,28.00
2024-02-07T09:04:24.016Z,24.00
2024-02-07T09:06:52.888Z,25.00
2024-02-07T09:09:21.879Z,24.00
2024-02-07T09:11:50.517Z,22.75
2024-02-07T09:14:19.464Z,20.80
2024-02-07T09:16:49.623Z,20.80
2024-02-07T09:19:18.844Z,18.20
2024-02-07T09:21:47.664Z,18.80
2024-02-07T09:24:16.628Z,16.60
2024-02-07T09:26:45.363Z,17.80
2024-02-07T09:29:14.375Z,15.00
2024-02-07T09:31:43.091Z,19.00
2024-02-07T09:34:13.540Z,20.20
2024-02-07T09:36:42.324Z,19.40
2024-02-07T09:39:11.263Z,19.80
2024-02-07T09:41:43.230Z,20.20
2024-02-07T09:44:16.932Z,19.00
2024-02-07T09:46:46.705Z,15.80
2024-02-07T09:49:19.708Z,16.20
2024-02-07T09:51:48.491Z,15.20
2024-02-07T09:54:21.085Z,15.20
2024-02-07T09:56:51.133Z,14.80
2024-02-07T09:59:22.074Z,15.00
2024-02-07T10:01:51.179Z,16.20
2024-02-07T10:04:30.624Z,11.60
2024-02-07T10:06:59.813Z,14.40
2024-02-07T10:09:31.434Z,13.40
2024-02-07T10:12:02.644Z,15.00
2024-02-07T10:14:33.522Z,14.20
2024-02-07T10:17:02.641Z,13.00
2024-02-07T10:19:34.989Z,12.60
2024-02-07T10:22:17.682Z,13.00
2024-02-07T10:24:47.463Z,12.80
2024-02-07T10:27:23.408Z,12.00
2024-02-07T10:29:52.480Z,7.00
2024-02-07T10:32:22.590Z,14.00
2024-02-07T10:34:57.125Z,12.80
2024-02-07T10:37:26.804Z,13.40
2024-02-07T10:40:02.944Z,3.80
2024-02-07T10:42:31.912Z,15.00
2024-02-07T10:45:09.562Z,12.80
2024-02-07T10:47:40.173Z,14.20
2024-02-07T10:50:13.137Z,13.80
2024-02-07T10:52:43.441Z,14.20
2024-02-07T10:55:16.549Z,12.60
2024-02-07T10:57:50.283Z,13.00
2024-02-07T11:00:20.074Z,12.00
2024-02-07T11:02:51.853Z,10.40
2024-02-07T11:05:24.082Z,13.00
2024-02-07T11:07:53.724Z,10.60
2024-02-07T11:10:24.911Z,12.80
2024-02-07T11:12:54.311Z,12.60
2024-02-07T11:15:23.778Z,13.00
2024-02-07T11:17:52.560Z,12.40
2024-02-07T11:20:23.482Z,11.80
2024-02-07T11:22:53.693Z,11.80
2024-02-07T11:25:26.854Z,14.40
2024-02-07T11:27:57.545Z,14.60
2024-02-07T11:30:28.128Z,12.80
2024-02-07T11:32:59.875Z,15.00
2024-02-07T11:35:34.290Z,13.00
2024-02-07T11:38:04.961Z,13.80
2024-02-07T11:40:41.681Z,14.80
2024-02-07T11:43:20.340Z,15.00
2024-02-07T11:45:51.901Z,14.80
2024-02-07T11:48:21.738Z,14.20
2024-02-07T11:50:54.260Z,16.40
2024-02-07T11:53:23.656Z,11.40
2024-02-07T11:55:52.660Z,13.80
2024-02-07T11:58:24.502Z,14.20
2024-02-07T12:00:53.678Z,14.80
2024-02-07T12:03:23.054Z,12.00
2024-02-07T12:05:53.804Z,14.00
2024-02-07T12:08:23.646Z,14.40
2024-02-07T12:10:53.112Z,14.20
2024-02-07T12:13:21.919Z,14.60
2024-02-07T12:15:52.677Z,17.20
2024-02-07T12:18:21.383Z,13.40
2024-02-07T12:20:50.617Z,13.00
2024-02-07T12:23:21.138Z,14.80
2024-02-07T12:25:57.755Z,13.60
2024-02-07T12:28:27.429Z,14.80
2024-02-07T12:30:57.219Z,14.40
2024-02-07T12:33:26.856Z,14.40
2024-02-07T12:35:57.729Z,12.80
2024-02-07T12:38:28.555Z,15.00
2024-02-07T12:40:58.976Z,13.00
2024-02-07T12:43:29.092Z,15.00
2024-02-07T12:46:00.086Z,15.40
2024-02-07T12:48:29.695Z,14.80
2024-02-07T12:51:02.946Z,16.20
2024-02-07T12:53:34.372Z,15.20
2024-02-07T12:56:04.096Z,15.20
2024-02-07T12:58:43.096Z,15.60
2024-02-07T13:01:13.515Z,17.40
2024-02-07T13:03:44.324Z,14.40
2024-02-07T13:06:15.699Z,13.00
2024-02-07T13:08:45.853Z,15.80
2024-02-07T13:11:15.654Z,15.20
2024-02-07T13:13:44.467Z,15.40
2024-02-07T13:16:13.678Z,16.20
2024-02-07T13:18:42.408Z,18.40
2024-02-07T13:21:12.448Z,17.40
2024-02-07T13:23:41.179Z,13.00
2024-02-07T13:26:11.821Z,15.00
2024-02-07T13:28:41.211Z,14.20
2024-02-07T13:31:10.421Z,14.00
2024-02-07T13:33:39.216Z,16.00
2024-02-07T13:36:08.697Z,17.80
2024-02-07T13:38:38.122Z,31.50
2024-02-07T13:41:07.768Z,22.00
2024-02-07T13:43:37.997Z,24.00
2024-02-07T13:46:07.073Z,27.75
2024-02-07T13:48:35.905Z,20.40
2024-02-07T13:51:05.283Z,21.60
2024-02-07T13:53:34.050Z,21.00
2024-02-07T13:56:04.754Z,20.40
2024-02-07T13:58:34.059Z,20.00
2024-02-07T14:01:04.710Z,21.20
2024-02-07T14:03:33.593Z,20.00
2024-02-07T14:06:03.594Z,18.80
2024-02-07T14:08:32.387Z,20.40
2024-02-07T14:11:02.155Z,17.60
2024-02-07T14:13:30.971Z,15.00
2024-02-07T14:15:59.994Z,20.60
2024-02-07T14:18:30.123Z,20.00
2024-02-07T14:20:59.824Z,22.40
2024-02-07T14:23:28.565Z,18.60
2024-02-07T14:25:59.010Z,16.80
2024-02-07T14:28:27.815Z,22.20
2024-02-07T14:30:56.812Z,22.00
2024-02-07T14:33:25.563Z,18.00
2024-02-07T14:35:56.054Z,19.00
2024-02-07T14:38:27.543Z,18.40
2024-02-07T14:40:58.658Z,22.80
2024-02-07T14:43:27.573Z,22.20
2024-02-07T14:45:56.596Z,20.60
2024-02-07T14:48:25.342Z,23.00
2024-02-07T14:50:55.853Z,35.25
2024-02-07T14:53:24.927Z,21.00
2024-02-07T14:55:59.760Z,22.00
2024-02-07T14:58:29.395Z,23.00
2024-02-07T15:00:58.827Z,25.50
2024-02-07T15:03:27.566Z,28.50
2024-02-07T15:05:58.842Z,23.50
2024-02-07T15:08:27.588Z,24.25
2024-02-07T15:10:56.507Z,28.00
2024-02-07T15:13:25.036Z,26.75
2024-02-07T15:15:53.756Z,25.00
2024-02-07T15:18:23.053Z,27.75
2024-02-07T15:20:51.799Z,23.00
2024-02-07T15:23:21.647Z,21.00
2024-02-07T15:25:51.291Z,20.60
2024-02-07T15:28:20.477Z,20.80
2024-02-07T15:30:50.875Z,22.00
2024-02-07T15:33:22.254Z,20.00
2024-02-07T15:35:52.566Z,22.00
2024-02-07T15:38:22.542Z,32.25
2024-02-07T15:40:52.652Z,60.25
2024-02-07T15:43:21.469Z,29.25
2024-02-07T15:45:50.268Z,29.00
2024-02-07T15:48:18.863Z,26.50
2024-02-07T15:50:47.870Z,26.00
2024-02-07T15:53:16.509Z,28.00
2024-02-07T15:55:46.735Z,26.25
2024-02-07T15:58:18.058Z,26.00
2024-02-07T16:00:47.038Z,26.75
2024-02-07T16:03:15.666Z,28.00
2024-02-07T16:05:44.679Z,24.75
2024-02-07T16:08:13.309Z,27.25
2024-02-07T16:10:42.486Z,27.75
2024-02-07T16:13:12.505Z,27.00
2024-02-07T16:15:41.788Z,28.00
2024-02-07T16:18:10.342Z,28.00
2024-02-07T16:20:39.324Z,29.00
2024-02-07T16:23:07.880Z,54.50
2024-02-07T16:25:36.649Z,35.00
2024-02-07T16:28:05.557Z,29.25
2024-02-07T16:30:35.636Z,55.25
2024-02-07T16:33:04.300Z,44.33
2024-02-07T16:35:33.171Z,44.75
2024-02-07T16:38:01.874Z,44.00
2024-02-07T16:40:33.672Z,44.33
2024-02-07T16:43:05.090Z,47.25
2024-02-07T16:45:37.410Z,48.00
2024-02-07T16:48:07.090Z,43.33
2024-02-07T16:50:35.936Z,40.25
2024-02-07T16:53:06.754Z,40.33
2024-02-07T16:55:35.656Z,43.50
2024-02-07T16:58:04.317Z,35.50
2024-02-07T17:00:33.161Z,36.00
2024-02-07T17:03:05.806Z,33.75
2024-02-07T17:05:34.670Z,40.50
2024-02-07T17:08:03.641Z,32.25
2024-02-07T17:10:32.644Z,36.25
2024-02-07T17:13:01.463Z,34.50
2024-02-07T17:15:30.447Z,34.75
2024-02-07T17:17:59.182Z,33.25
2024-02-07T17:20:29.732Z,31.25
2024-02-07T17:22:58.591Z,32.75
2024-02-07T17:25:27.763Z,28.25
2024-02-07T17:27:56.569Z,30.25
2024-02-07T17:30:35.574Z,27.75
2024-02-07T17:33:07.654Z,26.75
2024-02-07T17:35:38.175Z,29.25
2024-02-07T17:38:06.822Z,29.75
2024-02-07T17:40:36.476Z,27.25
2024-02-07T17:43:05.541Z,29.25
2024-02-07T17:45:34.509Z,23.00
2024-02-07T17:48:03.257Z,25.00
2024-02-07T17:50:35.652Z,24.50
2024-02-07T17:53:06.561Z,24.00
2024-02-07T17:55:35.739Z,22.25
2024-02-07T17:58:04.557Z,23.75
2024-02-07T18:00:33.566Z,24.00
2024-02-07T18:03:02.414Z,23.00
2024-02-07T18:05:34.377Z,24.00
2024-02-07T18:08:03.256Z,22.00
2024-02-07T18:10:33.827Z,24.00
2024-02-07T18:13:02.617Z,20.60
2024-02-07T18:15:31.784Z,24.60
2024-02-07T18:18:00.504Z,21.00
2024-02-07T18:20:33.244Z,23.00
2024-02-07T18:23:03.264Z,19.40
2024-02-07T18:25:33.750Z,22.00
2024-02-07T18:28:02.392Z,23.60
2024-02-07T18:30:31.923Z,27.00
2024-02-07T18:33:00.910Z,29.00
2024-02-07T18:35:29.998Z,27.00
2024-02-07T18:37:59.029Z,30.50
2024-02-07T18:40:28.105Z,29.00
2024-02-07T18:42:58.229Z,30.25
2024-02-07T18:45:28.436Z,28.00
2024-02-07T18:47:57.112Z,29.00
2024-02-07T18:50:26.212Z,28.25
2024-02-07T18:52:55.040Z,31.75
2024-02-07T18:55:24.029Z,32.25
2024-02-07T18:57:52.757Z,31.00
2024-02-07T19:00:23.550Z,33.25
2024-02-07T19:02:52.230Z,29.25
2024-02-07T19:05:21.582Z,35.00
2024-02-07T19:07:50.487Z,32.75
2024-02-07T19:10:19.884Z,31.25
2024-02-07T19:12:48.619Z,29.00
2024-02-07T19:15:17.790Z,29.75
2024-02-07T19:17:47.974Z,28.00
2024-02-07T19:20:17.237Z,28.00
2024-02-07T19:22:46.177Z,30.25
2024-02-07T19:25:15.312Z,31.00
2024-02-07T19:27:43.993Z,27.00
2024-02-07T19:30:13.982Z,28.75
2024-02-07T19:32:43.215Z,29.75
2024-02-07T19:35:14.156Z,29.75
2024-02-07T19:37:42.991Z,24.00
2024-02-07T19:40:13.060Z,21.20
2024-02-07T19:42:41.836Z,24.00
2024-02-07T19:45:11.818Z,23.60
2024-02-07T19:47:41.339Z,19.40
2024-02-07T19:50:15.044Z,21.00
2024-02-07T19:52:46.082Z,21.00
2024-02-07T19:55:15.406Z,23.00
2024-02-07T19:57:44.057Z,23.00
2024-02-07T20:00:13.787Z,24.00
2024-02-07T20:02:43.194Z,23.50
2024-02-07T20:05:14.205Z,25.00
2024-02-07T20:07:43.208Z,27.75
2024-02-07T20:10:13.692Z,27.75
2024-02-07T20:12:42.450Z,21.25
2024-02-07T20:15:11.854Z,28.00
2024-02-07T20:17:40.719Z,27.25
2024-02-07T20:20:10.532Z,21.00
2024-02-07T20:22:39.301Z,27.50
2024-02-07T20:25:11.053Z,23.50
2024-02-07T20:27:41.254Z,25.00
2024-02-07T20:30:10.533Z,24.25
2024-02-07T20:32:39.283Z,25.50
2024-02-07T20:35:08.922Z,26.00
2024-02-07T20:37:37.673Z,25.75
2024-02-07T20:40:07.524Z,25.00
2024-02-07T20:42:38.065Z,22.20
2024-02-07T20:45:08.950Z,23.25
2024-02-07T20:47:39.310Z,28.75
2024-02-07T20:50:09.445Z,29.25
2024-02-07T20:52:38.205Z,33.00
2024-02-07T20:55:08.174Z,35.00
2024-02-07T20:57:37.177Z,34.00
2024-02-07T21:00:06.962Z,35.25
2024-02-07T21:02:37.536Z,33.25
2024-02-07T21:05:07.819Z,37.00
2024-02-07T21:07:37.049Z,35.50
2024-02-07T21:10:07.120Z,36.75
2024-02-07T21:12:35.968Z,40.00
2024-02-07T21:15:05.600Z,43.00
2024-02-07T21:17:35.502Z,40.00
2024-02-07T21:20:06.831Z,37.00
2024-02-07T21:22:35.789Z,38.75
2024-02-07T21:25:05.246Z,39.67
2024-02-07T21:27:33.854Z,41.00
2024-02-07T21:30:02.851Z,42.00
2024-02-07T21:32:31.585Z,40.00
2024-02-07T21:35:01.495Z,39.33
2024-02-07T21:37:31.684Z,36.75
2024-02-07T21:40:01.283Z,36.75
2024-02-07T21:42:30.088Z,36.50
2024-02-07T21:44:59.726Z,35.25
2024-02-07T21:47:29.156Z,35.50
2024-02-07T21:49:58.355Z,35.00
2024-02-07T21:52:28.485Z,34.00
2024-02-07T21:54:58.898Z,35.00
2024-02-07T21:57:27.585Z,34.75
2024-02-07T21:59:56.643Z,35.25
2024-02-07T22:02:25.289Z,33.25
2024-02-07T22:04:54.302Z,32.25
2024-02-07T22:07:22.959Z,33.25
2024-02-07T22:09:52.001Z,33.50
2024-02-07T22:12:24.881Z,34.50
2024-02-07T22:14:54.048Z,32.25
2024-02-07T22:17:24.201Z,33.25
2024-02-07T22:19:53.515Z,32.25
2024-02-07T22:22:22.702Z,34.25
2024-02-07T22:24:52.411Z,33.25
2024-02-07T22:27:22.448Z,32.50
2024-02-07T22:29:51.431Z,33.00
2024-02-07T22:32:20.123Z,26.50
2024-02-07T22:34:49.159Z,32.00
2024-02-07T22:37:19.445Z,28.50
2024-02-07T22:39:49.296Z,34.75
2024-02-07T22:42:18.080Z,32.75
2024-02-07T22:44:48.638Z,34.25
2024-02-07T22:47:17.393Z,39.67
2024-02-07T22:49:47.722Z,38.75
2024-02-07T22:52:16.455Z,36.00
2024-02-07T22:54:45.457Z,36.25
2024-02-07T22:57:14.936Z,36.00
2024-02-07T22:59:44.658Z,36.00
2024-02-07T23:02:15.537Z,34.75
2024-02-07T23:04:44.801Z,35.25
2024-02-07T23:07:13.521Z,36.00
2024-02-07T23:09:42.765Z,34.75
2024-02-07T23:12:11.498Z,35.00
2024-02-07T23:14:41.176Z,34.75
2024-02-07T23:17:09.847Z,34.25
2024-02-07T23:19:40.557Z,34.25
2024-02-07T23:22:09.222Z,33.00
2024-02-07T23:24:38.250Z,31.50
2024-02-07T23:27:07.121Z,30.00
2024-02-07T23:29:36.101Z,29.50
2024-02-07T23:32:05.352Z,27.25
2024-02-07T23:34:34.650Z,28.00
2024-02-07T23:37:07.425Z,26.50
2024-02-07T23:39:37.163Z,29.00
2024-02-07T23:42:06.491Z,25.00
2024-02-07T23:44:35.525Z,28.00
2024-02-07T23:47:04.236Z,24.25
2024-02-07T23:49:33.245Z,28.00
2024-02-07T23:52:01.994Z,31.00
2024-02-07T23:54:32.548Z,30.25
2024-02-07T23:57:01.610Z,26.75
2024-02-07T23:59:30.651Z,28.00
